createdAt,value
2018-09-14T00:03:02.334Z,12.70
2018-09-14T00:05:45.079Z,12.80
2018-09-14T00:08:14.002Z,12.90
2018-09-14T01:02:36.521Z,12.70
2018-09-14T01:05:13.213Z,12.80
2018-09-14T01:07:42.092Z,13.00
2018-09-14T02:02:36.525Z,12.80
2018-09-14T02:05:05.725Z,12.90
2018-09-14T02:07:34.425Z,13.00
2018-09-14T02:10:03.437Z,13.30
2018-09-14T03:02:40.609Z,12.90
2018-09-14T03:05:09.318Z,12.90
2018-09-14T03:07:37.980Z,13.10
2018-09-14T03:10:07.845Z,13.30
2018-09-14T04:02:39.353Z,12.20
2018-09-14T04:05:08.048Z,12.30
2018-09-14T04:07:36.770Z,12.40
2018-09-14T04:10:05.777Z,12.60
2018-09-14T05:02:36.521Z,12.50
2018-09-14T05:05:05.318Z,12.60
2018-09-14T05:07:34.120Z,12.80
2018-09-14T05:10:03.013Z,13.00
2018-09-14T06:02:57.353Z,13.70
2018-09-14T06:05:26.153Z,14.00
2018-09-14T06:07:54.835Z,14.40
2018-09-14T07:02:36.814Z,16.80
2018-09-14T07:05:05.493Z,16.80
2018-09-14T07:07:34.256Z,17.00
2018-09-14T07:10:03.167Z,17.20
2018-09-14T08:02:40.184Z,18.00
2018-09-14T08:05:08.897Z,18.20
2018-09-14T08:07:37.639Z,18.00
2018-09-14T08:10:08.425Z,18.20
2018-09-14T09:02:44.185Z,19.40
2018-09-14T09:05:12.914Z,19.20
2018-09-14T09:07:41.651Z,18.90
2018-09-14T09:10:11.614Z,18.70
2018-09-14T10:02:53.589Z,19.70
2018-09-14T10:05:27.450Z,20.00
2018-09-14T10:07:56.473Z,20.40
2018-09-14T11:02:40.359Z,21.30
2018-09-14T11:05:09.100Z,21.30
2018-09-14T11:07:37.781Z,21.50
2018-09-14T11:10:06.818Z,22.00
2018-09-14T12:02:41.726Z,20.30
2018-09-14T12:05:17.100Z,20.40
2018-09-14T12:07:46.222Z,20.30
2018-09-14T13:02:39.494Z,20.20
2018-09-14T13:05:08.193Z,20.40
2018-09-14T13:07:36.858Z,20.60
2018-09-14T13:10:05.852Z,20.50
2018-09-14T14:02:37.163Z,20.80
2018-09-14T14:05:05.974Z,20.80
2018-09-14T14:07:34.693Z,20.70
2018-09-14T14:10:03.606Z,21.00
2018-09-14T15:02:45.605Z,19.70
2018-09-14T15:05:14.520Z,19.70
2018-09-14T15:07:43.422Z,19.70
2018-09-14T16:02:40.669Z,16.80
2018-09-14T16:05:09.469Z,16.60
2018-09-14T16:07:38.165Z,16.60
2018-09-14T16:10:07.065Z,16.70
2018-09-14T17:02:37.029Z,12.70
2018-09-14T17:05:05.885Z,12.60
2018-09-14T17:07:34.567Z,12.70
2018-09-14T17:10:03.433Z,12.80
2018-09-14T18:02:40.678Z,10.70
2018-09-14T18:05:09.523Z,10.70
2018-09-14T18:07:38.236Z,10.80
2018-09-14T19:02:37.142Z,9.70
2018-09-14T19:05:05.845Z,9.80
2018-09-14T19:07:34.625Z,9.90
2018-09-14T19:10:03.505Z,10.10
2018-09-14T20:02:36.720Z,8.80
2018-09-14T20:05:05.448Z,9.00
2018-09-14T20:07:34.124Z,9.00
2018-09-14T20:10:03.026Z,9.20
2018-09-14T21:02:37.206Z,7.90
2018-09-14T21:05:05.947Z,8.00
2018-09-14T21:07:34.672Z,8.20
2018-09-14T21:10:03.580Z,8.40
2018-09-14T22:02:44.237Z,7.10
2018-09-14T22:05:13.097Z,7.20
2018-09-14T22:07:45.204Z,7.40
2018-09-14T23:02:53.505Z,6.80
2018-09-14T23:05:22.213Z,6.80
2018-09-14T23:07:50.946Z,7.00
